Time;durP1;ratioP1;P1;durP2;ratioP2;P2;SDS_P1;SDS_P2;PMS_P1;PMS_P2;Temp;Humidity;BMP_temperature;BMP_pressure;BME280_temperature;BME280_humidity;BME280_pressure;Samples;Min_cycle;Max_cycle;Signal;HPM_P1;HPM_P2
2022/07/02 00:02:21;;;;;;;9.30;2.88;;;11.20;1.00;;;;;;5076493;28;20066;-27
2022/07/02 00:04:56;;;;;;;6.07;2.90;;;11.30;1.00;;;;;;5077065;28;20044;-26
2022/07/02 00:07:22;;;;;;;6.50;2.90;;;11.20;1.00;;;;;;5077318;28;20044;-26
2022/07/02 00:09:47;;;;;;;5.07;3.20;;;11.20;1.00;;;;;;5075873;28;20457;-26
2022/07/02 00:12:13;;;;;;;6.80;2.92;;;11.20;1.00;;;;;;5077044;28;20044;-26
2022/07/02 00:14:39;;;;;;;6.20;3.28;;;11.10;1.00;;;;;;5076638;28;20040;-26
2022/07/02 00:17:05;;;;;;;5.10;2.58;;;11.10;16.10;;;;;;5076227;28;20044;-26
2022/07/02 00:19:31;;;;;;;6.35;3.45;;;11.10;18.80;;;;;;5076236;28;20044;-27
2022/07/02 00:21:58;;;;;;;6.30;3.25;;;11.00;46.30;;;;;;5058407;28;20505;-27
2022/07/02 00:24:24;;;;;;;10.30;3.55;;;11.00;70.50;;;;;;5076164;28;20057;-26
2022/07/02 00:26:54;;;;;;;7.53;3.15;;;11.00;94.00;;;;;;5076368;28;20131;-26
2022/07/02 00:29:35;;;;;;;6.28;3.13;;;11.00;99.90;;;;;;5076924;28;20056;-26
2022/07/02 00:32:03;;;;;;;6.30;3.78;;;10.90;99.90;;;;;;5075065;28;20052;-27
2022/07/02 00:34:31;;;;;;;5.85;3.95;;;10.90;99.90;;;;;;5075832;28;20087;-27
2022/07/02 00:36:57;;;;;;;9.98;3.72;;;10.90;99.90;;;;;;5075939;28;20046;-26
2022/07/02 00:39:23;;;;;;;8.35;3.90;;;10.90;99.90;;;;;;5076724;28;20098;-26
2022/07/02 00:41:50;;;;;;;6.72;3.92;;;10.80;99.90;;;;;;5075757;28;20390;-26
2022/07/02 00:44:18;;;;;;;5.40;3.85;;;10.80;99.90;;;;;;5076095;28;20084;-26
2022/07/02 00:46:44;;;;;;;10.38;4.18;;;10.80;99.90;;;;;;5075698;28;20040;-26
2022/07/02 00:49:12;;;;;;;6.88;3.60;;;10.80;99.90;;;;;;5075466;28;20494;-26
2022/07/02 00:51:38;;;;;;;8.60;3.70;;;10.80;99.90;;;;;;5076442;28;20052;-28
2022/07/02 00:54:04;;;;;;;12.10;4.25;;;10.80;99.90;;;;;;5075610;28;20494;-27
2022/07/02 00:56:31;;;;;;;11.18;5.07;;;10.80;99.90;;;;;;5075560;28;20048;-26
2022/07/02 00:58:56;;;;;;;7.15;4.40;;;10.80;99.90;;;;;;5075485;28;20076;-26
2022/07/02 01:01:22;;;;;;;8.65;4.03;;;10.80;99.90;;;;;;5075453;28;20080;-26
2022/07/02 01:03:49;;;;;;;6.97;4.70;;;10.80;99.90;;;;;;5075787;28;20048;-26
2022/07/02 01:06:17;;;;;;;7.72;4.50;;;10.70;99.90;;;;;;5075394;28;20052;-26
2022/07/02 01:11:31;;;;;;;9.55;4.45;;;10.70;99.90;;;;;;5074856;28;20063;-26
2022/07/02 01:13:57;;;;;;;5.95;4.35;;;10.70;99.90;;;;;;5075190;28;20052;-26
2022/07/02 01:16:24;;;;;;;7.97;4.25;;;10.70;99.90;;;;;;5075061;28;20044;-26
2022/07/02 01:18:50;;;;;;;9.02;5.40;;;10.70;1.00;;;;;;5073875;28;20395;-26
2022/07/02 01:21:16;;;;;;;9.60;4.93;;;10.70;1.00;;;;;;5075060;28;20076;-26
2022/07/02 01:23:41;;;;;;;8.80;5.55;;;10.70;1.00;;;;;;5074880;28;20133;-28
2022/07/02 01:26:07;;;;;;;12.85;6.13;;;10.70;1.00;;;;;;5075171;28;20051;-26
2022/07/02 01:28:33;;;;;;;9.88;4.68;;;10.70;1.00;;;;;;5075160;28;20080;-26
2022/07/02 01:30:58;;;;;;;6.30;4.65;;;10.70;1.00;;;;;;5074807;28;20044;-26
2022/07/02 01:33:24;;;;;;;12.05;4.70;;;10.70;1.00;;;;;;5074819;28;20041;-26
2022/07/02 01:35:50;;;;;;;10.65;6.00;;;10.70;1.00;;;;;;5073780;28;20044;-26
2022/07/02 01:38:16;;;;;;;10.40;4.82;;;10.70;1.00;;;;;;5074964;28;20036;-26
2022/07/02 01:40:41;;;;;;;11.60;6.00;;;10.70;1.00;;;;;;5074656;28;20166;-26
2022/07/02 01:43:07;;;;;;;10.50;5.95;;;10.70;1.00;;;;;;5074551;28;20128;-26
2022/07/02 01:45:33;;;;;;;8.40;5.72;;;10.60;1.00;;;;;;5073378;28;20110;-26
2022/07/02 01:47:59;;;;;;;8.82;5.93;;;10.60;1.00;;;;;;5073271;28;20084;-26
2022/07/02 01:50:24;;;;;;;12.07;5.88;;;10.70;6.10;;;;;;5073824;28;20047;-26
2022/07/02 01:52:51;;;;;;;10.00;5.82;;;10.70;48.20;;;;;;5074378;28;20048;-26
2022/07/02 01:55:17;;;;;;;10.48;6.60;;;10.70;36.40;;;;;;5074362;28;20501;-26
2022/07/02 01:57:43;;;;;;;12.93;5.85;;;10.70;51.40;;;;;;5073212;28;20410;-26
2022/07/02 02:00:12;;;;;;;9.65;6.07;;;10.70;30.00;;;;;;5074334;28;20048;-26
2022/07/02 02:02:38;;;;;;;9.20;4.88;;;10.60;51.70;;;;;;5074177;28;20461;-26
2022/07/02 02:05:04;;;;;;;11.98;6.03;;;10.60;59.70;;;;;;5074239;28;20376;-26
2022/07/02 02:07:31;;;;;;;12.27;5.82;;;10.70;80.10;;;;;;5056331;28;20052;-26
2022/07/02 02:09:57;;;;;;;9.00;5.68;;;10.60;91.20;;;;;;5072710;28;20051;-26
2022/07/02 02:12:22;;;;;;;11.07;6.13;;;10.60;99.90;;;;;;5073418;28;20100;-26
2022/07/02 02:14:48;;;;;;;11.93;6.75;;;10.60;99.90;;;;;;5073994;28;20086;-26
2022/07/02 02:17:14;;;;;;;12.75;6.45;;;10.60;99.90;;;;;;5073974;28;20048;-26
2022/07/02 02:19:39;;;;;;;9.43;6.20;;;10.50;99.90;;;;;;5073696;28;20536;-26
2022/07/02 02:22:05;;;;;;;11.02;7.20;;;10.50;99.90;;;;;;5073838;28;20051;-26
2022/07/02 02:24:31;;;;;;;12.15;6.68;;;10.50;99.90;;;;;;5073964;28;20084;-28
2022/07/02 02:26:58;;;;;;;11.52;6.68;;;10.50;99.90;;;;;;5074725;28;20117;-26
2022/07/02 02:29:24;;;;;;;10.73;5.82;;;10.60;99.90;;;;;;5074688;28;20114;-26
2022/07/02 02:31:50;;;;;;;11.15;6.25;;;10.60;99.90;;;;;;5073832;28;20485;-26
2022/07/02 02:34:16;;;;;;;14.13;7.38;;;10.60;99.90;;;;;;5072813;28;20044;-26
2022/07/02 02:36:41;;;;;;;11.38;6.68;;;10.60;99.90;;;;;;5072570;28;20037;-26
2022/07/02 02:39:07;;;;;;;11.18;6.68;;;10.60;99.90;;;;;;5073788;28;20132;-26
2022/07/02 02:41:33;;;;;;;12.23;7.47;;;10.60;99.90;;;;;;5073620;28;20052;-26
2022/07/02 02:43:59;;;;;;;11.23;6.32;;;10.60;99.90;;;;;;5073716;28;20040;-26
2022/07/02 02:46:24;;;;;;;13.52;7.68;;;10.60;99.90;;;;;;5073714;28;20094;-26
2022/07/02 02:48:50;;;;;;;10.25;6.32;;;10.60;99.90;;;;;;5073650;28;20041;-26
2022/07/02 02:51:16;;;;;;;10.75;6.78;;;10.60;99.90;;;;;;5073643;28;20157;-26
2022/07/02 02:53:42;;;;;;;14.52;6.57;;;10.60;99.90;;;;;;5074392;28;20040;-26
2022/07/02 02:56:09;;;;;;;12.40;7.40;;;10.60;99.90;;;;;;5072580;28;20485;-26
2022/07/02 02:58:35;;;;;;;14.23;7.45;;;10.60;99.90;;;;;;5073593;28;20087;-26
2022/07/02 03:01:01;;;;;;;11.55;6.38;;;10.60;99.90;;;;;;5073541;28;20036;-26
2022/07/02 03:03:27;;;;;;;16.05;8.15;;;10.50;99.90;;;;;;5073417;28;20040;-26
2022/07/02 03:05:53;;;;;;;10.02;6.72;;;10.50;99.90;;;;;;5073495;28;20502;-26
2022/07/02 03:08:19;;;;;;;10.75;6.43;;;10.50;99.90;;;;;;5071980;28;20555;-26
2022/07/02 03:10:45;;;;;;;13.73;6.97;;;10.50;99.90;;;;;;5075009;28;20109;-28
2022/07/02 03:13:11;;;;;;;12.27;6.55;;;10.50;99.90;;;;;;5077773;28;20052;-27
2022/07/02 03:15:37;;;;;;;18.02;6.90;;;10.50;99.90;;;;;;5077379;28;20041;-26
2022/07/02 03:18:03;;;;;;;8.55;6.55;;;10.50;99.90;;;;;;5077515;28;20048;-26
2022/07/02 03:20:31;;;;;;;8.88;5.82;;;10.50;99.90;;;;;;5077414;28;20055;-27
2022/07/02 03:22:57;;;;;;;11.95;5.88;;;10.50;99.90;;;;;;5076015;28;20398;-26
2022/07/02 03:25:22;;;;;;;10.00;5.80;;;10.50;99.90;;;;;;5077277;28;20070;-26
2022/07/02 03:27:48;;;;;;;15.90;6.28;;;10.50;99.90;;;;;;5077733;28;20048;-26
2022/07/02 03:30:14;;;;;;;14.05;6.22;;;10.60;99.90;;;;;;5076053;28;20048;-26
2022/07/02 03:32:40;;;;;;;12.27;5.57;;;10.60;99.90;;;;;;5077176;28;20133;-26
2022/07/02 03:35:06;;;;;;;7.20;4.70;;;10.60;99.90;;;;;;5077092;28;20394;-26
2022/07/02 03:37:32;;;;;;;12.50;5.65;;;10.60;99.90;;;;;;5076996;28;20044;-26
2022/07/02 03:39:57;;;;;;;16.98;5.88;;;10.60;99.90;;;;;;5077790;28;20040;-26
2022/07/02 03:42:23;;;;;;;11.95;6.00;;;10.60;99.90;;;;;;5075658;28;20471;-26
2022/07/02 03:44:49;;;;;;;9.98;5.22;;;10.60;99.90;;;;;;5077683;28;20040;-27
2022/07/02 03:47:15;;;;;;;12.27;5.40;;;10.60;99.90;;;;;;5075701;28;20052;-26
2022/07/02 03:49:40;;;;;;;13.45;5.25;;;10.60;99.90;;;;;;5076773;28;20045;-26
2022/07/02 03:52:07;;;;;;;10.20;5.68;;;10.60;99.90;;;;;;5076436;28;20041;-27
2022/07/02 03:54:32;;;;;;;9.85;5.07;;;10.70;99.90;;;;;;5076782;28;20051;-26
2022/07/02 03:56:58;;;;;;;10.15;4.85;;;10.70;99.90;;;;;;5076632;28;20052;-27
2022/07/02 03:59:24;;;;;;;10.82;5.93;;;10.60;99.90;;;;;;5075921;28;20041;-26
2022/07/02 04:01:52;;;;;;;17.05;6.13;;;10.70;99.90;;;;;;5058854;28;20052;-26
2022/07/02 04:04:18;;;;;;;16.15;6.20;;;10.80;99.90;;;;;;5076548;28;20064;-26
2022/07/02 04:06:44;;;;;;;12.38;5.28;;;10.80;99.90;;;;;;5077034;28;20075;-27
2022/07/02 04:09:10;;;;;;;14.88;5.82;;;10.90;99.90;;;;;;5076520;28;20474;-26
2022/07/02 04:11:35;;;;;;;16.02;5.60;;;11.10;99.90;;;;;;5073841;28;20060;-26
2022/07/02 04:14:01;;;;;;;13.48;6.13;;;11.20;99.90;;;;;;5075184;28;20145;-26
2022/07/02 04:16:27;;;;;;;11.85;5.80;;;11.40;99.90;;;;;;5073577;28;20036;-26
2022/07/02 04:18:52;;;;;;;12.10;6.15;;;11.50;99.90;;;;;;5075132;28;20101;-27
2022/07/02 04:21:18;;;;;;;11.40;5.43;;;11.60;99.90;;;;;;5074698;28;20105;-26
2022/07/02 04:23:44;;;;;;;8.55;5.20;;;11.60;99.90;;;;;;5075016;28;20040;-26
2022/07/02 04:26:09;;;;;;;10.00;5.15;;;11.60;99.90;;;;;;5074079;28;20521;-26
2022/07/02 04:28:35;;;;;;;9.30;5.13;;;11.70;99.90;;;;;;5074047;28;20091;-26
2022/07/02 04:31:01;;;;;;;12.00;4.80;;;11.70;99.90;;;;;;5074987;28;20048;-26
2022/07/02 04:33:26;;;;;;;12.82;5.32;;;11.80;1.00;;;;;;5074945;28;20076;-26
2022/07/02 04:35:52;;;;;;;16.27;5.78;;;11.90;1.00;;;;;;5073733;28;20098;-26
2022/07/02 04:38:18;;;;;;;12.85;5.40;;;12.00;1.00;;;;;;5074878;28;20508;-26
2022/07/02 04:40:44;;;;;;;10.98;5.30;;;12.10;1.00;;;;;;5073637;28;20052;-26
2022/07/02 04:43:09;;;;;;;9.32;5.13;;;12.30;1.00;;;;;;5074405;28;20127;-26
2022/07/02 04:45:35;;;;;;;9.70;4.13;;;12.50;1.00;;;;;;5073538;28;20045;-27
2022/07/02 04:48:01;;;;;;;11.10;4.53;;;12.60;1.00;;;;;;5074750;28;20048;-26
2022/07/02 04:50:26;;;;;;;16.13;4.75;;;12.80;1.00;;;;;;5074655;28;20056;-26
2022/07/02 04:52:52;;;;;;;13.07;5.05;;;13.00;1.00;;;;;;5074604;28;20474;-26
2022/07/02 04:55:18;;;;;;;8.98;4.63;;;13.10;1.00;;;;;;5074780;28;20111;-26
2022/07/02 04:57:43;;;;;;;7.80;4.22;;;13.20;99.90;;;;;;5074518;28;20047;-26
2022/07/02 05:00:10;;;;;;;14.93;4.97;;;13.30;99.90;;;;;;5073317;28;20047;-26
2022/07/02 05:02:35;;;;;;;9.18;4.60;;;13.40;99.90;;;;;;5074403;28;20045;-26
2022/07/02 05:05:02;;;;;;;9.48;4.20;;;13.50;99.90;;;;;;5074416;28;20383;-26
2022/07/02 05:07:27;;;;;;;10.68;4.32;;;13.70;99.90;;;;;;5056372;28;20047;-27
2022/07/02 05:09:53;;;;;;;8.90;4.03;;;14.30;99.90;;;;;;5032641;28;1153340;-27
2022/07/02 05:12:19;;;;;;;13.65;5.57;;;15.10;53.90;;;;;;5075855;28;20126;-27
2022/07/02 05:14:44;;;;;;;5.82;3.80;;;15.80;99.90;;;;;;5075266;28;20094;-26
2022/07/02 05:17:10;;;;;;;7.28;3.60;;;16.30;1.00;;;;;;5074774;28;20491;-26
2022/07/02 05:19:36;;;;;;;8.68;3.92;;;16.60;99.90;;;;;;5075140;28;20123;-26
2022/07/02 05:22:02;;;;;;;13.52;4.72;;;16.80;99.90;;;;;;5074916;28;20051;-26
2022/07/02 05:24:27;;;;;;;8.75;4.43;;;17.10;99.90;;;;;;5075030;28;20072;-26
2022/07/02 05:26:53;;;;;;;6.88;3.58;;;17.30;24.20;;;;;;5074340;28;20463;-27
2022/07/02 05:29:19;;;;;;;7.95;3.90;;;17.40;1.00;;;;;;5075198;28;20044;-27
2022/07/02 05:31:45;;;;;;;8.23;3.47;;;17.50;1.00;;;;;;5057588;28;20084;-26
2022/07/02 05:34:10;;;;;;;7.40;5.30;;;17.40;1.00;;;;;;5074042;28;20415;-26
2022/07/02 05:36:36;;;;;;;8.80;3.72;;;17.60;1.00;;;;;;5074480;28;20045;-26
2022/07/02 05:39:02;;;;;;;8.90;4.53;;;17.70;1.00;;;;;;5074935;28;20052;-26
2022/07/02 05:41:28;;;;;;;10.95;4.05;;;17.80;1.00;;;;;;5074664;28;20055;-26
2022/07/02 05:43:53;;;;;;;9.98;4.40;;;18.00;1.00;;;;;;5056730;28;20044;-26
2022/07/02 05:46:19;;;;;;;13.77;5.13;;;18.20;99.90;;;;;;5074568;28;20134;-26
2022/07/02 05:48:45;;;;;;;11.57;5.05;;;18.30;99.90;;;;;;5056904;28;20059;-27
2022/07/02 05:51:10;;;;;;;8.90;4.50;;;18.40;99.90;;;;;;5074494;28;20040;-26
2022/07/02 05:53:36;;;;;;;7.68;4.40;;;18.40;99.90;;;;;;5074115;28;20040;-26
2022/07/02 05:56:02;;;;;;;11.43;4.65;;;18.50;99.90;;;;;;5073210;28;20098;-26
2022/07/02 05:58:28;;;;;;;8.25;4.38;;;18.60;99.90;;;;;;5074220;28;20075;-26
2022/07/02 06:00:53;;;;;;;10.35;4.47;;;18.90;99.90;;;;;;5057558;28;20090;-26
2022/07/02 06:03:19;;;;;;;5.30;3.88;;;19.00;99.90;;;;;;5074254;28;20056;-26
2022/07/02 06:08:30;;;;;;;7.65;4.25;;;19.20;99.90;;;;;;5074247;28;20102;-26
2022/07/02 06:10:56;;;;;;;8.52;3.85;;;19.10;28.60;;;;;;5073010;28;20052;-27
2022/07/02 06:13:22;;;;;;;9.10;3.50;;;19.10;99.90;;;;;;5073972;28;20359;-26
2022/07/02 06:15:47;;;;;;;8.43;4.03;;;19.00;99.90;;;;;;5073989;28;20055;-26
2022/07/02 06:18:13;;;;;;;9.93;3.35;;;18.90;99.90;;;;;;5074537;28;20074;-26
2022/07/02 06:20:39;;;;;;;9.00;3.75;;;19.10;99.90;;;;;;5073728;28;20048;-27
2022/07/02 06:23:05;;;;;;;5.35;2.83;;;19.20;99.90;;;;;;5072758;28;20048;-26
2022/07/02 06:25:31;;;;;;;5.68;3.05;;;19.40;99.90;;;;;;5073987;28;20487;-26
2022/07/02 06:27:57;;;;;;;8.63;3.20;;;19.30;99.90;;;;;;5073964;28;20052;-26
2022/07/02 06:30:23;;;;;;;7.38;2.67;;;19.70;93.60;;;;;;5073894;28;20044;-26
2022/07/02 06:32:49;;;;;;;9.50;4.18;;;20.00;1.00;;;;;;5073906;28;20059;-26
2022/07/02 06:35:15;;;;;;;5.90;3.10;;;20.10;1.00;;;;;;5072679;28;20071;-26
2022/07/02 06:37:41;;;;;;;6.32;2.55;;;20.10;1.00;;;;;;5073830;28;20466;-26
2022/07/02 06:40:07;;;;;;;8.00;3.92;;;20.10;1.00;;;;;;5072585;28;20449;-26
2022/07/02 06:42:33;;;;;;;9.18;2.85;;;20.10;1.00;;;;;;5073695;28;20041;-26
2022/07/02 06:44:59;;;;;;;7.88;3.00;;;20.30;1.00;;;;;;5072341;28;20045;-26
2022/07/02 06:47:26;;;;;;;9.60;3.45;;;20.50;1.00;;;;;;5072451;28;20049;-26
2022/07/02 06:49:54;;;;;;;5.97;2.53;;;20.40;1.00;;;;;;5074479;28;20132;-26
2022/07/02 06:52:21;;;;;;;5.82;3.05;;;20.50;1.00;;;;;;5073581;28;20044;-26
2022/07/02 06:54:46;;;;;;;9.05;3.15;;;20.50;1.00;;;;;;5073574;28;20479;-26
2022/07/02 06:57:12;;;;;;;8.05;2.63;;;20.60;1.00;;;;;;5073850;28;20098;-26
2022/07/02 06:59:38;;;;;;;5.15;2.65;;;20.70;1.00;;;;;;5074117;28;20434;-26
2022/07/02 07:02:04;;;;;;;7.30;2.45;;;20.90;1.00;;;;;;5072263;28;20091;-26
2022/07/02 07:04:30;;;;;;;5.68;2.00;;;21.30;99.90;;;;;;5073725;28;20474;-26
2022/07/02 07:06:57;;;;;;;6.50;2.60;;;21.10;99.90;;;;;;5072317;28;20044;-26
2022/07/02 07:09:23;;;;;;;5.88;2.67;;;20.70;99.90;;;;;;5073443;28;20060;-26
2022/07/02 07:11:50;;;;;;;7.43;2.47;;;20.40;99.90;;;;;;5073232;28;20153;-26
2022/07/02 07:14:16;;;;;;;5.32;2.08;;;20.50;1.00;;;;;;5074223;28;20045;-26
2022/07/02 07:16:42;;;;;;;8.82;2.53;;;20.50;1.00;;;;;;5073328;28;20071;-26
2022/07/02 07:19:08;;;;;;;4.60;1.95;;;20.40;1.00;;;;;;5072262;28;20044;-26
2022/07/02 07:21:35;;;;;;;9.80;2.72;;;20.50;1.00;;;;;;5073364;28;20110;-26
2022/07/02 07:24:01;;;;;;;5.63;1.80;;;20.70;1.00;;;;;;5072328;28;20052;-26
2022/07/02 07:26:26;;;;;;;6.57;1.88;;;20.90;1.00;;;;;;5073850;28;20045;-26
2022/07/02 07:28:52;;;;;;;8.00;2.15;;;21.00;99.90;;;;;;5073264;28;20118;-26
2022/07/02 07:31:21;;;;;;;5.53;1.85;;;21.10;99.90;;;;;;5073507;28;20117;-26
2022/07/02 07:33:47;;;;;;;5.90;1.85;;;21.30;99.90;;;;;;5073076;28;20048;-26
2022/07/02 07:36:13;;;;;;;3.90;1.48;;;21.30;98.50;;;;;;5073213;28;20440;-26
2022/07/02 07:38:39;;;;;;;6.25;1.52;;;21.30;99.90;;;;;;5073176;28;20053;-26
2022/07/02 07:41:05;;;;;;;9.52;1.90;;;21.20;99.90;;;;;;5073153;28;20048;-26
2022/07/02 07:43:31;;;;;;;7.07;1.65;;;21.20;99.90;;;;;;5072738;28;20410;-26
2022/07/02 07:45:56;;;;;;;6.13;2.10;;;20.90;99.90;;;;;;5073411;28;20056;-27
2022/07/02 07:48:22;;;;;;;5.88;1.70;;;20.80;99.90;;;;;;5073640;28;20127;-26
2022/07/02 07:50:48;;;;;;;5.72;1.95;;;21.10;99.90;;;;;;5055109;28;20059;-26
2022/07/02 07:53:14;;;;;;;3.70;0.90;;;21.30;99.90;;;;;;5073082;28;20052;-26
2022/07/02 07:55:39;;;;;;;4.32;1.17;;;21.60;71.10;;;;;;5073978;28;20044;-26
2022/07/02 07:58:05;;;;;;;5.13;1.08;;;21.50;1.00;;;;;;5076716;28;20486;-26
2022/07/02 08:00:31;;;;;;;2.85;0.60;;;21.60;1.00;;;;;;5076654;28;20496;-26
2022/07/02 08:02:57;;;;;;;5.53;1.00;;;21.70;99.90;;;;;;5076563;28;20049;-27
2022/07/02 08:05:23;;;;;;;1.98;0.52;;;21.50;1.00;;;;;;5076541;28;20371;-26
2022/07/02 08:07:49;;;;;;;2.70;0.57;;;21.10;99.90;;;;;;5076544;28;20052;-26
2022/07/02 08:10:15;;;;;;;7.68;2.03;;;21.10;8.40;;;;;;5076447;28;20057;-26
2022/07/02 08:12:41;;;;;;;4.55;1.00;;;21.20;1.00;;;;;;5076905;28;20040;-26
2022/07/02 08:15:08;;;;;;;3.15;1.00;;;21.40;1.00;;;;;;5076395;28;20106;-27
2022/07/02 08:17:35;;;;;;;5.57;1.67;;;21.60;1.00;;;;;;5075365;28;20053;-26
2022/07/02 08:20:02;;;;;;;7.20;1.67;;;21.40;99.90;;;;;;5076304;28;20095;-27
2022/07/02 08:22:28;;;;;;;6.30;1.40;;;21.50;99.90;;;;;;5076146;28;20036;-26
2022/07/02 08:24:53;;;;;;;4.43;0.70;;;21.60;99.90;;;;;;5059248;28;20048;-27
2022/07/02 08:27:19;;;;;;;9.18;2.33;;;21.80;72.40;;;;;;5076151;28;20505;-26
2022/07/02 08:29:45;;;;;;;15.93;3.67;;;21.80;95.40;;;;;;5074938;28;20117;-26
2022/07/02 08:32:11;;;;;;;5.53;1.58;;;21.90;98.40;;;;;;5076871;28;20033;-27
2022/07/02 08:34:37;;;;;;;11.05;2.95;;;21.90;1.00;;;;;;5076036;28;20052;-26
2022/07/02 08:37:03;;;;;;;7.85;2.28;;;22.00;99.90;;;;;;5075947;28;20483;-26
2022/07/02 08:39:28;;;;;;;8.23;2.20;;;22.10;99.90;;;;;;5074351;28;20127;-26
2022/07/02 08:41:57;;;;;;;7.57;1.70;;;22.30;84.40;;;;;;5075756;28;20060;-27
2022/07/02 08:44:25;;;;;;;7.28;1.40;;;22.00;1.00;;;;;;5074511;28;20045;-26
2022/07/02 08:46:51;;;;;;;4.13;0.90;;;21.80;52.20;;;;;;5076301;28;20059;-27
2022/07/02 08:49:21;;;;;;;4.22;1.15;;;22.00;1.00;;;;;;5075659;28;20119;-26
2022/07/02 08:52:07;;;;;;;2.95;0.50;;;21.90;1.00;;;;;;5075654;28;20055;-26
2022/07/02 08:54:35;;;;;;;3.92;0.88;;;21.80;1.00;;;;;;5076509;28;20045;-26
2022/07/02 08:57:03;;;;;;;3.25;0.90;;;21.80;25.50;;;;;;5075835;28;20045;-27
2022/07/02 08:59:32;;;;;;;3.80;0.80;;;22.00;1.00;;;;;;5075563;28;20044;-27
2022/07/02 09:02:00;;;;;;;4.50;0.52;;;22.30;1.00;;;;;;5076234;28;20115;-27
2022/07/02 09:04:26;;;;;;;6.22;1.50;;;22.20;1.00;;;;;;5075439;28;20044;-26
2022/07/02 09:06:59;;;;;;;5.47;1.45;;;22.60;1.00;;;;;;5074127;28;20102;-26
2022/07/02 09:09:28;;;;;;;2.72;0.60;;;23.00;1.00;;;;;;5074627;28;20046;-26
2022/07/02 09:11:55;;;;;;;2.33;0.40;;;22.80;99.90;;;;;;5075265;28;20060;-26
2022/07/02 09:14:21;;;;;;;1.75;0.77;;;22.60;99.90;;;;;;5075254;28;20452;-27
2022/07/02 09:16:51;;;;;;;2.85;0.57;;;22.60;99.90;;;;;;5075176;28;20052;-26
2022/07/02 09:19:18;;;;;;;1.27;0.40;;;22.50;99.90;;;;;;5075718;28;20091;-26
2022/07/02 09:21:48;;;;;;;4.55;1.10;;;22.40;99.90;;;;;;5075116;28;20094;-27
2022/07/02 09:24:14;;;;;;;4.53;0.82;;;22.60;99.90;;;;;;5075078;28;20048;-27
2022/07/02 09:26:40;;;;;;;2.92;0.60;;;22.50;94.80;;;;;;5074002;28;20036;-26
2022/07/02 09:29:06;;;;;;;1.25;0.40;;;22.50;99.90;;;;;;5074942;28;20170;-27
2022/07/02 09:31:32;;;;;;;2.25;0.40;;;22.70;99.90;;;;;;5073756;28;20131;-27
2022/07/02 09:33:59;;;;;;;1.75;0.43;;;22.90;41.00;;;;;;5074787;28;20048;-27
2022/07/02 09:36:24;;;;;;;2.08;0.50;;;22.90;1.00;;;;;;5073828;28;20123;-27
2022/07/02 09:38:53;;;;;;;1.75;0.55;;;23.20;6.90;;;;;;5074783;28;20127;-28
2022/07/02 09:41:23;;;;;;;3.45;0.50;;;23.40;1.00;;;;;;5057090;28;20055;-27
2022/07/02 09:43:59;;;;;;;2.40;0.55;;;23.30;1.00;;;;;;5074236;28;20475;-27
2022/07/02 09:46:26;;;;;;;3.58;0.65;;;23.20;1.00;;;;;;5075406;28;20127;-27
2022/07/02 09:48:52;;;;;;;4.90;0.70;;;23.50;1.00;;;;;;5074584;28;20040;-26
2022/07/02 09:51:18;;;;;;;4.10;0.90;;;23.60;1.00;;;;;;5075170;28;20521;-26
2022/07/02 09:54:02;;;;;;;2.10;0.43;;;23.90;14.10;;;;;;5075083;28;20141;-26
2022/07/02 09:56:27;;;;;;;2.90;0.82;;;23.70;97.60;;;;;;5074441;28;20498;-27
2022/07/02 09:58:53;;;;;;;2.42;0.30;;;23.50;99.90;;;;;;5074388;28;20134;-27
2022/07/02 10:01:20;;;;;;;2.22;0.30;;;23.80;99.90;;;;;;5074854;28;20048;-27
2022/07/02 10:03:47;;;;;;;1.38;0.40;;;24.10;99.90;;;;;;5074225;28;20056;-27
2022/07/02 10:06:14;;;;;;;4.10;0.73;;;24.10;99.90;;;;;;5074275;28;20067;-27
2022/07/02 10:08:41;;;;;;;2.72;0.40;;;24.30;99.90;;;;;;5074244;28;20044;-27
2022/07/02 10:11:08;;;;;;;2.55;0.47;;;24.00;99.90;;;;;;5073832;28;20086;-27
2022/07/02 10:13:36;;;;;;;1.38;0.25;;;23.50;99.90;;;;;;5074416;28;20044;-27
2022/07/02 10:16:14;;;;;;;2.25;0.55;;;23.50;99.90;;;;;;5073717;28;20478;-27
2022/07/02 10:18:45;;;;;;;3.50;0.60;;;22.90;99.90;;;;;;5073702;28;20054;-27
2022/07/02 10:21:15;;;;;;;1.75;0.47;;;22.30;99.90;;;;;;5074569;28;20120;-27
2022/07/02 10:23:43;;;;;;;3.55;0.70;;;22.00;1.00;;;;;;5073872;28;20040;-27
2022/07/02 10:26:12;;;;;;;2.90;0.38;;;21.60;1.00;;;;;;5073969;28;20131;-27
2022/07/02 10:28:38;;;;;;;3.33;0.68;;;21.20;1.00;;;;;;5073929;28;20050;-27
2022/07/02 10:31:07;;;;;;;3.75;0.70;;;21.40;1.00;;;;;;5073920;28;20056;-27
2022/07/02 10:33:43;;;;;;;3.92;0.38;;;21.70;1.00;;;;;;5073862;28;20045;-27
2022/07/02 10:36:12;;;;;;;2.63;0.50;;;21.90;1.00;;;;;;5074503;28;20098;-28
2022/07/02 10:38:39;;;;;;;1.98;0.38;;;22.00;1.00;;;;;;5073522;28;20571;-27
2022/07/02 10:41:06;;;;;;;3.72;0.40;;;22.10;14.10;;;;;;5073763;28;20048;-27
2022/07/02 10:43:37;;;;;;;1.02;0.20;;;21.90;1.00;;;;;;5073652;28;20051;-27
2022/07/02 10:46:06;;;;;;;1.75;0.22;;;22.10;1.00;;;;;;5072832;28;20382;-27
2022/07/02 10:48:54;;;;;;;1.15;0.30;;;22.30;1.00;;;;;;5073691;28;20049;-26
2022/07/02 10:51:28;;;;;;;3.03;0.43;;;22.20;1.00;;;;;;5073687;28;20501;-27
2022/07/02 10:54:00;;;;;;;1.85;0.40;;;22.50;15.30;;;;;;5073668;28;20044;-27
2022/07/02 10:56:30;;;;;;;1.45;0.40;;;23.00;6.50;;;;;;5073003;28;20048;-27
2022/07/02 10:58:56;;;;;;;1.30;0.20;;;23.30;29.60;;;;;;5072116;28;20403;-26
2022/07/02 11:01:24;;;;;;;2.88;0.40;;;23.20;99.90;;;;;;5073528;28;20045;-27
2022/07/02 11:04:01;;;;;;;2.15;0.40;;;23.30;46.90;;;;;;5073514;28;20124;-27
2022/07/02 11:06:28;;;;;;;1.42;0.20;;;22.80;5.80;;;;;;5073565;28;20506;-27
2022/07/02 11:08:54;;;;;;;1.20;0.50;;;22.40;9.30;;;;;;5072509;28;20060;-26
2022/07/02 11:11:32;;;;;;;1.00;0.20;;;22.70;70.00;;;;;;5073559;28;20057;-27
2022/07/02 11:13:58;;;;;;;3.55;0.30;;;23.40;80.80;;;;;;5073533;28;20052;-27
2022/07/02 11:16:47;;;;;;;1.13;0.47;;;23.50;49.50;;;;;;5073713;28;20390;-27
2022/07/02 11:19:30;;;;;;;2.90;0.57;;;24.10;82.80;;;;;;5073077;28;20052;-27
2022/07/02 11:21:58;;;;;;;1.42;0.40;;;24.50;94.00;;;;;;5073908;28;20052;-27
2022/07/02 11:24:26;;;;;;;1.95;0.40;;;24.30;89.30;;;;;;5073598;28;20547;-27
2022/07/02 11:26:53;;;;;;;1.42;0.45;;;24.00;62.80;;;;;;5073861;28;20045;-26
2022/07/02 11:29:19;;;;;;;2.58;0.60;;;24.00;59.40;;;;;;5072303;28;20048;-27
2022/07/02 11:31:47;;;;;;;5.78;0.40;;;24.30;32.00;;;;;;5074215;28;20055;-28
2022/07/02 11:34:19;;;;;;;2.00;0.30;;;24.10;9.20;;;;;;5078000;28;20114;-27
2022/07/02 11:36:45;;;;;;;1.33;0.30;;;24.60;67.30;;;;;;5077769;28;20044;-27
2022/07/02 11:39:12;;;;;;;1.75;0.30;;;24.90;57.30;;;;;;5077080;28;20044;-27
2022/07/02 11:41:39;;;;;;;1.95;0.30;;;24.80;3.60;;;;;;5077068;28;20052;-27
2022/07/02 11:44:17;;;;;;;1.92;0.10;;;24.40;5.30;;;;;;5077695;28;20036;-27
2022/07/02 11:46:51;;;;;;;2.50;0.40;;;24.20;1.00;;;;;;5076854;28;20481;-27
2022/07/02 11:49:20;;;;;;;1.60;0.17;;;24.10;1.00;;;;;;5077195;28;20486;-28
2022/07/02 11:51:47;;;;;;;1.80;0.28;;;24.40;1.00;;;;;;5076884;28;20055;-28
2022/07/02 11:54:13;;;;;;;0.73;0.28;;;24.00;1.30;;;;;;5075807;28;20044;-27
2022/07/02 11:56:41;;;;;;;1.85;0.40;;;23.60;1.00;;;;;;5076760;28;20391;-27
2022/07/02 11:59:15;;;;;;;2.10;0.40;;;23.50;11.50;;;;;;5076779;28;20052;-27
2022/07/02 12:01:43;;;;;;;2.58;0.40;;;23.90;1.00;;;;;;5076699;28;20577;-27
2022/07/02 12:04:14;;;;;;;1.50;0.30;;;24.30;27.30;;;;;;5076512;28;20047;-28
2022/07/02 12:06:42;;;;;;;1.08;0.30;;;24.50;8.20;;;;;;5076287;28;20383;-27
2022/07/02 12:09:09;;;;;;;1.63;0.30;;;24.10;1.00;;;;;;5076506;28;20470;-27
2022/07/02 12:11:38;;;;;;;2.50;0.60;;;23.70;1.00;;;;;;5076236;28;20056;-27
2022/07/02 12:14:06;;;;;;;0.77;0.20;;;23.40;1.00;;;;;;5076423;28;20075;-27
2022/07/02 12:16:33;;;;;;;1.60;0.32;;;23.80;6.20;;;;;;5076764;28;20040;-27
2022/07/02 12:19:10;;;;;;;0.77;0.20;;;24.00;1.00;;;;;;5076260;28;20063;-27
2022/07/02 12:21:41;;;;;;;1.67;0.32;;;24.30;51.40;;;;;;5076613;28;20429;-27
2022/07/02 12:24:24;;;;;;;2.83;0.35;;;24.20;37.90;;;;;;5076173;28;20079;-28
2022/07/02 12:26:51;;;;;;;;;;;24.50;33.70;;;;;;5077407;28;20094;-27
2022/07/02 12:32:08;;;;;;;1.33;0.25;;;25.00;23.70;;;;;;5076167;28;20095;-27
2022/07/02 12:34:45;;;;;;;2.70;0.28;;;24.90;12.80;;;;;;5076358;28;20053;-27
2022/07/02 12:37:23;;;;;;;2.17;0.52;;;24.60;1.00;;;;;;5076135;28;20054;-27
2022/07/02 12:39:55;;;;;;;1.27;0.30;;;24.20;1.00;;;;;;5075991;28;20052;-28
2022/07/02 12:42:23;;;;;;;1.27;0.20;;;24.10;1.00;;;;;;5075632;28;20080;-27
2022/07/02 12:45:09;;;;;;;2.50;0.50;;;24.40;23.20;;;;;;5075873;28;20414;-27
2022/07/02 12:47:39;;;;;;;3.60;0.35;;;24.50;1.00;;;;;;5073313;28;20516;-28
2022/07/02 12:50:14;;;;;;;3.28;0.40;;;24.30;1.00;;;;;;5075789;28;20132;-27
2022/07/02 12:52:48;;;;;;;3.28;0.47;;;24.30;11.20;;;;;;5074534;28;20103;-27
2022/07/02 12:55:28;;;;;;;1.35;0.30;;;24.40;1.00;;;;;;5075687;28;20132;-27
2022/07/02 12:57:56;;;;;;;0.80;0.30;;;24.50;6.60;;;;;;5075753;28;20049;-27